sensor_id;sensor_type;location;lat;lon;timestamp;pressure;altitude;pressure_sealevel;temperature
65600;BMP280;52272;-29.642;-50.764;2022-09-29T00:00:12;101842.47;;;16.51
65600;BMP280;52272;-29.642;-50.764;2022-09-29T00:02:43;101864.22;;;16.74
65600;BMP280;52272;-29.642;-50.764;2022-09-29T00:05:16;101863.63;;;16.79
65600;BMP280;52272;-29.642;-50.764;2022-09-29T00:07:47;101862.78;;;16.82
65600;BMP280;52272;-29.642;-50.764;2022-09-29T00:10:17;101866.63;;;16.81
65600;BMP280;52272;-29.642;-50.764;2022-09-29T00:12:48;101878.00;;;16.76
65600;BMP280;52272;-29.642;-50.764;2022-09-29T00:15:18;101868.03;;;17.04
65600;BMP280;52272;-29.642;-50.764;2022-09-29T00:17:49;101872.66;;;16.94
65600;BMP280;52272;-29.642;-50.764;2022-09-29T00:20:39;101870.88;;;17.09
65600;BMP280;52272;-29.642;-50.764;2022-09-29T00:23:09;101863.75;;;17.15
65600;BMP280;52272;-29.642;-50.764;2022-09-29T00:25:40;101872.84;;;17.18
65600;BMP280;52272;-29.642;-50.764;2022-09-29T00:28:10;101881.81;;;17.06
65600;BMP280;52272;-29.642;-50.764;2022-09-29T00:30:40;101871.72;;;16.79
65600;BMP280;52272;-29.642;-50.764;2022-09-29T00:33:11;101878.47;;;16.93
65600;BMP280;52272;-29.642;-50.764;2022-09-29T00:35:41;101880.53;;;16.80
65600;BMP280;52272;-29.642;-50.764;2022-09-29T00:38:11;101885.16;;;16.79
65600;BMP280;52272;-29.642;-50.764;2022-09-29T00:40:42;101890.72;;;16.76
65600;BMP280;52272;-29.642;-50.764;2022-09-29T00:43:23;101887.03;;;16.61
65600;BMP280;52272;-29.642;-50.764;2022-09-29T00:45:54;101895.25;;;16.58
65600;BMP280;52272;-29.642;-50.764;2022-09-29T00:48:30;101905.31;;;16.66
65600;BMP280;52272;-29.642;-50.764;2022-09-29T00:51:01;101919.84;;;16.77
65600;BMP280;52272;-29.642;-50.764;2022-09-29T00:53:35;101923.13;;;16.73
65600;BMP280;52272;-29.642;-50.764;2022-09-29T00:56:06;101910.50;;;16.61
65600;BMP280;52272;-29.642;-50.764;2022-09-29T00:58:39;101928.06;;;16.83
65600;BMP280;52272;-29.642;-50.764;2022-09-29T01:01:12;101923.53;;;17.01
65600;BMP280;52272;-29.642;-50.764;2022-09-29T01:03:45;101934.44;;;16.98
65600;BMP280;52272;-29.642;-50.764;2022-09-29T01:06:22;101925.63;;;16.97
65600;BMP280;52272;-29.642;-50.764;2022-09-29T01:08:59;101930.56;;;16.99
65600;BMP280;52272;-29.642;-50.764;2022-09-29T01:11:31;101930.25;;;16.97
65600;BMP280;52272;-29.642;-50.764;2022-09-29T01:14:05;101923.63;;;16.89
65600;BMP280;52272;-29.642;-50.764;2022-09-29T01:16:37;101935.88;;;16.81
65600;BMP280;52272;-29.642;-50.764;2022-09-29T01:19:43;101924.50;;;16.77
65600;BMP280;52272;-29.642;-50.764;2022-09-29T01:22:33;101927.63;;;16.75
65600;BMP280;52272;-29.642;-50.764;2022-09-29T01:25:21;101930.38;;;16.63
65600;BMP280;52272;-29.642;-50.764;2022-09-29T01:28:17;101922.94;;;16.37
65600;BMP280;52272;-29.642;-50.764;2022-09-29T01:31:11;101917.25;;;16.35
65600;BMP280;52272;-29.642;-50.764;2022-09-29T01:42:18;101928.50;;;16.73
65600;BMP280;52272;-29.642;-50.764;2022-09-29T01:44:53;101930.25;;;16.67
65600;BMP280;52272;-29.642;-50.764;2022-09-29T01:47:37;101931.50;;;16.74
65600;BMP280;52272;-29.642;-50.764;2022-09-29T01:50:31;101946.47;;;16.75
65600;BMP280;52272;-29.642;-50.764;2022-09-29T01:53:10;101948.22;;;17.09
65600;BMP280;52272;-29.642;-50.764;2022-09-29T01:55:46;101953.81;;;17.32
65600;BMP280;52272;-29.642;-50.764;2022-09-29T01:58:32;101954.16;;;17.52
65600;BMP280;52272;-29.642;-50.764;2022-09-29T02:01:05;101955.66;;;17.62
65600;BMP280;52272;-29.642;-50.764;2022-09-29T02:03:50;101955.69;;;17.71
65600;BMP280;52272;-29.642;-50.764;2022-09-29T02:06:28;101951.94;;;17.78
65600;BMP280;52272;-29.642;-50.764;2022-09-29T02:09:02;101962.13;;;17.92
65600;BMP280;52272;-29.642;-50.764;2022-09-29T02:11:34;101964.06;;;18.00
65600;BMP280;52272;-29.642;-50.764;2022-09-29T02:14:17;101967.06;;;18.11
65600;BMP280;52272;-29.642;-50.764;2022-09-29T02:16:50;101966.72;;;18.27
65600;BMP280;52272;-29.642;-50.764;2022-09-29T02:19:25;101958.34;;;18.07
65600;BMP280;52272;-29.642;-50.764;2022-09-29T02:21:59;101942.28;;;17.23
65600;BMP280;52272;-29.642;-50.764;2022-09-29T02:24:30;101930.34;;;16.84
65600;BMP280;52272;-29.642;-50.764;2022-09-29T02:27:01;101921.81;;;16.47
65600;BMP280;52272;-29.642;-50.764;2022-09-29T02:29:34;101909.59;;;16.33
65600;BMP280;52272;-29.642;-50.764;2022-09-29T02:32:07;101891.72;;;16.18
65600;BMP280;52272;-29.642;-50.764;2022-09-29T02:34:42;101885.19;;;16.19
65600;BMP280;52272;-29.642;-50.764;2022-09-29T02:37:52;101880.69;;;15.94
65600;BMP280;52272;-29.642;-50.764;2022-09-29T02:40:40;101889.88;;;15.84
65600;BMP280;52272;-29.642;-50.764;2022-09-29T02:43:28;101889.31;;;15.89
65600;BMP280;52272;-29.642;-50.764;2022-09-29T02:46:11;101900.44;;;16.22
65600;BMP280;52272;-29.642;-50.764;2022-09-29T02:51:48;101900.47;;;16.52
65600;BMP280;52272;-29.642;-50.764;2022-09-29T02:57:19;101893.00;;;16.04
65600;BMP280;52272;-29.642;-50.764;2022-09-29T02:59:57;101886.38;;;16.48
65600;BMP280;52272;-29.642;-50.764;2022-09-29T03:02:29;101901.41;;;16.97
65600;BMP280;52272;-29.642;-50.764;2022-09-29T03:05:00;101894.69;;;17.20
65600;BMP280;52272;-29.642;-50.764;2022-09-29T03:07:31;101892.50;;;17.45
65600;BMP280;52272;-29.642;-50.764;2022-09-29T03:10:01;101891.91;;;17.59
65600;BMP280;52272;-29.642;-50.764;2022-09-29T03:12:35;101895.16;;;17.81
65600;BMP280;52272;-29.642;-50.764;2022-09-29T03:15:06;101891.84;;;17.95
65600;BMP280;52272;-29.642;-50.764;2022-09-29T03:17:38;101901.44;;;18.05
65600;BMP280;52272;-29.642;-50.764;2022-09-29T03:20:08;101901.84;;;18.13
65600;BMP280;52272;-29.642;-50.764;2022-09-29T03:22:39;101910.09;;;18.09
65600;BMP280;52272;-29.642;-50.764;2022-09-29T03:25:13;101911.88;;;18.21
65600;BMP280;52272;-29.642;-50.764;2022-09-29T03:27:44;101913.69;;;18.56
65600;BMP280;52272;-29.642;-50.764;2022-09-29T03:30:15;101902.66;;;18.78
65600;BMP280;52272;-29.642;-50.764;2022-09-29T03:32:45;101905.25;;;18.96
65600;BMP280;52272;-29.642;-50.764;2022-09-29T03:35:15;101904.88;;;19.03
65600;BMP280;52272;-29.642;-50.764;2022-09-29T03:37:46;101903.75;;;19.18
65600;BMP280;52272;-29.642;-50.764;2022-09-29T03:40:16;101890.25;;;18.95
65600;BMP280;52272;-29.642;-50.764;2022-09-29T03:42:47;101882.38;;;18.09
65600;BMP280;52272;-29.642;-50.764;2022-09-29T03:45:17;101869.97;;;18.02
65600;BMP280;52272;-29.642;-50.764;2022-09-29T03:47:47;101876.00;;;17.88
65600;BMP280;52272;-29.642;-50.764;2022-09-29T03:50:18;101879.22;;;18.19
65600;BMP280;52272;-29.642;-50.764;2022-09-29T03:52:48;101888.25;;;18.49
65600;BMP280;52272;-29.642;-50.764;2022-09-29T03:55:18;101880.59;;;18.56
65600;BMP280;52272;-29.642;-50.764;2022-09-29T03:57:49;101885.59;;;18.72
65600;BMP280;52272;-29.642;-50.764;2022-09-29T04:00:19;101876.84;;;18.77
65600;BMP280;52272;-29.642;-50.764;2022-09-29T04:02:50;101880.00;;;18.84
65600;BMP280;52272;-29.642;-50.764;2022-09-29T04:05:23;101867.16;;;18.94
65600;BMP280;52272;-29.642;-50.764;2022-09-29T04:07:53;101868.75;;;18.77
65600;BMP280;52272;-29.642;-50.764;2022-09-29T04:10:23;101871.09;;;19.07
65600;BMP280;52272;-29.642;-50.764;2022-09-29T04:12:52;101878.63;;;19.27
65600;BMP280;52272;-29.642;-50.764;2022-09-29T04:15:23;101879.41;;;19.42
65600;BMP280;52272;-29.642;-50.764;2022-09-29T04:17:53;101870.28;;;19.54
65600;BMP280;52272;-29.642;-50.764;2022-09-29T04:20:24;101878.13;;;19.66
65600;BMP280;52272;-29.642;-50.764;2022-09-29T04:22:54;101877.00;;;19.73
65600;BMP280;52272;-29.642;-50.764;2022-09-29T04:25:24;101878.97;;;19.20
65600;BMP280;52272;-29.642;-50.764;2022-09-29T04:27:55;101885.16;;;19.35
65600;BMP280;52272;-29.642;-50.764;2022-09-29T04:30:25;101889.56;;;19.47
65600;BMP280;52272;-29.642;-50.764;2022-09-29T04:32:55;101876.81;;;19.62
65600;BMP280;52272;-29.642;-50.764;2022-09-29T04:35:25;101875.63;;;19.77
65600;BMP280;52272;-29.642;-50.764;2022-09-29T04:37:56;101869.56;;;19.82
65600;BMP280;52272;-29.642;-50.764;2022-09-29T04:40:28;101861.53;;;19.88
65600;BMP280;52272;-29.642;-50.764;2022-09-29T04:42:59;101856.13;;;19.73
65600;BMP280;52272;-29.642;-50.764;2022-09-29T04:45:29;101845.19;;;20.11
65600;BMP280;52272;-29.642;-50.764;2022-09-29T04:48:00;101841.56;;;20.00
65600;BMP280;52272;-29.642;-50.764;2022-09-29T04:50:30;101822.94;;;19.87
65600;BMP280;52272;-29.642;-50.764;2022-09-29T04:53:01;101804.66;;;19.68
65600;BMP280;52272;-29.642;-50.764;2022-09-29T04:55:31;101795.91;;;19.44
65600;BMP280;52272;-29.642;-50.764;2022-09-29T04:58:01;101803.91;;;19.67
65600;BMP280;52272;-29.642;-50.764;2022-09-29T05:00:31;101800.19;;;19.65
65600;BMP280;52272;-29.642;-50.764;2022-09-29T05:03:02;101792.75;;;19.60
65600;BMP280;52272;-29.642;-50.764;2022-09-29T05:05:32;101802.06;;;19.73
65600;BMP280;52272;-29.642;-50.764;2022-09-29T05:08:06;101817.63;;;19.78
65600;BMP280;52272;-29.642;-50.764;2022-09-29T05:10:36;101808.34;;;19.85
65600;BMP280;52272;-29.642;-50.764;2022-09-29T05:13:07;101812.31;;;19.84
65600;BMP280;52272;-29.642;-50.764;2022-09-29T05:15:37;101816.97;;;19.83
65600;BMP280;52272;-29.642;-50.764;2022-09-29T05:18:07;101806.31;;;19.80
65600;BMP280;52272;-29.642;-50.764;2022-09-29T05:20:37;101794.16;;;19.03
65600;BMP280;52272;-29.642;-50.764;2022-09-29T05:23:22;101777.31;;;18.23
65600;BMP280;52272;-29.642;-50.764;2022-09-29T05:25:52;101772.81;;;18.20
65600;BMP280;52272;-29.642;-50.764;2022-09-29T05:28:23;101787.44;;;18.60
65600;BMP280;52272;-29.642;-50.764;2022-09-29T05:30:53;101781.13;;;19.01
65600;BMP280;52272;-29.642;-50.764;2022-09-29T05:33:23;101783.59;;;19.43
65600;BMP280;52272;-29.642;-50.764;2022-09-29T05:35:54;101782.66;;;19.46
65600;BMP280;52272;-29.642;-50.764;2022-09-29T05:38:24;101785.94;;;19.35
65600;BMP280;52272;-29.642;-50.764;2022-09-29T05:40:55;101795.34;;;19.40
65600;BMP280;52272;-29.642;-50.764;2022-09-29T05:43:25;101799.75;;;19.52
65600;BMP280;52272;-29.642;-50.764;2022-09-29T05:46:06;101790.41;;;19.53
65600;BMP280;52272;-29.642;-50.764;2022-09-29T05:48:37;101785.47;;;19.37
65600;BMP280;52272;-29.642;-50.764;2022-09-29T05:51:10;101786.78;;;19.27
65600;BMP280;52272;-29.642;-50.764;2022-09-29T05:53:41;101781.72;;;19.34
65600;BMP280;52272;-29.642;-50.764;2022-09-29T05:56:19;101767.75;;;18.13
65600;BMP280;52272;-29.642;-50.764;2022-09-29T05:58:50;101759.00;;;18.51
65600;BMP280;52272;-29.642;-50.764;2022-09-29T06:01:23;101750.88;;;17.53
65600;BMP280;52272;-29.642;-50.764;2022-09-29T06:03:55;101766.50;;;17.91
65600;BMP280;52272;-29.642;-50.764;2022-09-29T06:06:27;101762.41;;;18.28
65600;BMP280;52272;-29.642;-50.764;2022-09-29T06:08:58;101745.97;;;17.43
65600;BMP280;52272;-29.642;-50.764;2022-09-29T06:11:28;101752.03;;;17.61
65600;BMP280;52272;-29.642;-50.764;2022-09-29T06:14:02;101747.88;;;17.51
65600;BMP280;52272;-29.642;-50.764;2022-09-29T06:16:32;101758.06;;;18.07
65600;BMP280;52272;-29.642;-50.764;2022-09-29T06:19:03;101754.16;;;18.31
65600;BMP280;52272;-29.642;-50.764;2022-09-29T06:21:33;101751.03;;;18.56
65600;BMP280;52272;-29.642;-50.764;2022-09-29T06:24:04;101745.78;;;18.76
65600;BMP280;52272;-29.642;-50.764;2022-09-29T06:26:35;101750.84;;;18.83
65600;BMP280;52272;-29.642;-50.764;2022-09-29T06:29:06;101752.59;;;18.86
65600;BMP280;52272;-29.642;-50.764;2022-09-29T06:31:37;101742.19;;;18.93
65600;BMP280;52272;-29.642;-50.764;2022-09-29T06:34:08;101744.50;;;18.86
65600;BMP280;52272;-29.642;-50.764;2022-09-29T06:36:41;101753.16;;;18.29
65600;BMP280;52272;-29.642;-50.764;2022-09-29T06:39:30;101756.66;;;18.67
65600;BMP280;52272;-29.642;-50.764;2022-09-29T06:42:00;101763.66;;;18.73
65600;BMP280;52272;-29.642;-50.764;2022-09-29T06:44:32;101758.81;;;18.77
65600;BMP280;52272;-29.642;-50.764;2022-09-29T06:47:02;101751.75;;;18.80
65600;BMP280;52272;-29.642;-50.764;2022-09-29T06:49:32;101749.94;;;18.39
65600;BMP280;52272;-29.642;-50.764;2022-09-29T06:52:02;101749.66;;;18.37
65600;BMP280;52272;-29.642;-50.764;2022-09-29T06:54:46;101758.56;;;18.52
65600;BMP280;52272;-29.642;-50.764;2022-09-29T06:57:19;101741.53;;;18.60
65600;BMP280;52272;-29.642;-50.764;2022-09-29T06:59:49;101756.66;;;18.67
65600;BMP280;52272;-29.642;-50.764;2022-09-29T07:02:22;101768.09;;;18.62
65600;BMP280;52272;-29.642;-50.764;2022-09-29T07:04:52;101755.44;;;18.45
65600;BMP280;52272;-29.642;-50.764;2022-09-29T07:07:23;101774.53;;;18.32
65600;BMP280;52272;-29.642;-50.764;2022-09-29T07:09:53;101768.47;;;18.46
65600;BMP280;52272;-29.642;-50.764;2022-09-29T07:12:24;101743.03;;;17.82
65600;BMP280;52272;-29.642;-50.764;2022-09-29T07:14:54;101752.81;;;17.62
65600;BMP280;52272;-29.642;-50.764;2022-09-29T07:17:24;101767.03;;;17.53
65600;BMP280;52272;-29.642;-50.764;2022-09-29T07:19:54;101770.13;;;17.88
65600;BMP280;52272;-29.642;-50.764;2022-09-29T07:22:25;101751.00;;;18.09
65600;BMP280;52272;-29.642;-50.764;2022-09-29T07:24:55;101757.88;;;18.10
65600;BMP280;52272;-29.642;-50.764;2022-09-29T07:27:26;101739.97;;;17.98
65600;BMP280;52272;-29.642;-50.764;2022-09-29T07:29:56;101767.16;;;18.09
65600;BMP280;52272;-29.642;-50.764;2022-09-29T07:32:32;101763.84;;;18.14
65600;BMP280;52272;-29.642;-50.764;2022-09-29T07:35:02;101768.78;;;18.16
65600;BMP280;52272;-29.642;-50.764;2022-09-29T07:37:34;101763.84;;;18.14
65600;BMP280;52272;-29.642;-50.764;2022-09-29T07:40:04;101765.03;;;18.13
65600;BMP280;52272;-29.642;-50.764;2022-09-29T07:42:36;101770.91;;;18.12
65600;BMP280;52272;-29.642;-50.764;2022-09-29T07:45:07;101746.50;;;17.65
65600;BMP280;52272;-29.642;-50.764;2022-09-29T07:47:37;101766.28;;;18.12
65600;BMP280;52272;-29.642;-50.764;2022-09-29T07:50:08;101769.56;;;18.07
65600;BMP280;52272;-29.642;-50.764;2022-09-29T07:52:39;101751.97;;;17.88
65600;BMP280;52272;-29.642;-50.764;2022-09-29T07:55:09;101746.66;;;17.61
65600;BMP280;52272;-29.642;-50.764;2022-09-29T07:57:39;101747.88;;;17.51
65600;BMP280;52272;-29.642;-50.764;2022-09-29T08:00:12;101762.22;;;17.66
65600;BMP280;52272;-29.642;-50.764;2022-09-29T08:02:43;101770.91;;;17.79
65600;BMP280;52272;-29.642;-50.764;2022-09-29T08:05:13;101744.19;;;17.81
65600;BMP280;52272;-29.642;-50.764;2022-09-29T08:07:44;101759.16;;;17.91
65600;BMP280;52272;-29.642;-50.764;2022-09-29T08:10:20;101766.59;;;18.05
65600;BMP280;52272;-29.642;-50.764;2022-09-29T08:12:50;101761.69;;;17.95
65600;BMP280;52272;-29.642;-50.764;2022-09-29T08:15:21;101773.22;;;17.95
65600;BMP280;52272;-29.642;-50.764;2022-09-29T08:17:53;101771.72;;;17.94
65600;BMP280;52272;-29.642;-50.764;2022-09-29T08:20:24;101766.94;;;17.98
65600;BMP280;52272;-29.642;-50.764;2022-09-29T08:22:55;101757.31;;;18.06
65600;BMP280;52272;-29.642;-50.764;2022-09-29T08:25:26;101757.13;;;18.10
65600;BMP280;52272;-29.642;-50.764;2022-09-29T08:27:56;101749.19;;;18.15
65600;BMP280;52272;-29.642;-50.764;2022-09-29T08:30:26;101752.09;;;17.52
65600;BMP280;52272;-29.642;-50.764;2022-09-29T08:32:56;101754.00;;;17.70
65600;BMP280;52272;-29.642;-50.764;2022-09-29T08:35:27;101752.94;;;17.67
65600;BMP280;52272;-29.642;-50.764;2022-09-29T08:37:57;101749.25;;;17.97
65600;BMP280;52272;-29.642;-50.764;2022-09-29T08:40:28;101755.97;;;18.02
65600;BMP280;52272;-29.642;-50.764;2022-09-29T08:43:05;101754.91;;;17.99
65600;BMP280;52272;-29.642;-50.764;2022-09-29T08:45:48;101764.25;;;17.89
65600;BMP280;52272;-29.642;-50.764;2022-09-29T08:48:32;101759.47;;;17.93
65600;BMP280;52272;-29.642;-50.764;2022-09-29T08:51:33;101757.03;;;17.95
65600;BMP280;52272;-29.642;-50.764;2022-09-29T08:57:15;101786.53;;;17.39
65600;BMP280;52272;-29.642;-50.764;2022-09-29T09:05:41;101776.66;;;16.82
65600;BMP280;52272;-29.642;-50.764;2022-09-29T09:17:45;101763.22;;;15.52
65600;BMP280;52272;-29.642;-50.764;2022-09-29T09:20:34;101762.22;;;15.58
65600;BMP280;52272;-29.642;-50.764;2022-09-29T09:23:31;101770.31;;;15.89
65600;BMP280;52272;-29.642;-50.764;2022-09-29T09:26:04;101770.94;;;15.71
65600;BMP280;52272;-29.642;-50.764;2022-09-29T09:28:44;101775.78;;;16.07
65600;BMP280;52272;-29.642;-50.764;2022-09-29T09:31:38;101782.28;;;16.58
65600;BMP280;52272;-29.642;-50.764;2022-09-29T09:34:32;101790.38;;;16.84
65600;BMP280;52272;-29.642;-50.764;2022-09-29T09:37:23;101796.09;;;16.95
65600;BMP280;52272;-29.642;-50.764;2022-09-29T09:42:36;101793.56;;;17.37
65600;BMP280;52272;-29.642;-50.764;2022-09-29T09:48:33;101825.56;;;17.62
65600;BMP280;52272;-29.642;-50.764;2022-09-29T09:51:42;101828.53;;;17.82
65600;BMP280;52272;-29.642;-50.764;2022-09-29T09:54:32;101815.50;;;16.73
65600;BMP280;52272;-29.642;-50.764;2022-09-29T10:02:54;101810.78;;;16.16
65600;BMP280;52272;-29.642;-50.764;2022-09-29T10:05:35;101806.03;;;16.20
65600;BMP280;52272;-29.642;-50.764;2022-09-29T10:08:23;101800.25;;;16.78
65600;BMP280;52272;-29.642;-50.764;2022-09-29T10:10:56;101812.06;;;16.81
65600;BMP280;52272;-29.642;-50.764;2022-09-29T10:13:29;101806.97;;;16.74
65600;BMP280;52272;-29.642;-50.764;2022-09-29T10:16:23;101817.59;;;16.38
65600;BMP280;52272;-29.642;-50.764;2022-09-29T10:18:52;101832.06;;;16.32
65600;BMP280;52272;-29.642;-50.764;2022-09-29T10:21:36;101845.19;;;17.35
65600;BMP280;52272;-29.642;-50.764;2022-09-29T10:24:27;101853.25;;;17.62
65600;BMP280;52272;-29.642;-50.764;2022-09-29T10:27:00;101854.53;;;18.12
65600;BMP280;52272;-29.642;-50.764;2022-09-29T10:29:37;101858.44;;;18.43
65600;BMP280;52272;-29.642;-50.764;2022-09-29T10:32:13;101856.06;;;18.92
65600;BMP280;52272;-29.642;-50.764;2022-09-29T10:34:50;101862.84;;;19.78
65600;BMP280;52272;-29.642;-50.764;2022-09-29T10:42:45;101866.63;;;21.85
65600;BMP280;52272;-29.642;-50.764;2022-09-29T10:45:28;101872.97;;;22.60
65600;BMP280;52272;-29.642;-50.764;2022-09-29T10:50:35;101862.19;;;22.24
65600;BMP280;52272;-29.642;-50.764;2022-09-29T10:53:23;101859.97;;;21.86
65600;BMP280;52272;-29.642;-50.764;2022-09-29T10:55:56;101845.34;;;21.22
65600;BMP280;52272;-29.642;-50.764;2022-09-29T10:58:31;101855.47;;;20.61
65600;BMP280;52272;-29.642;-50.764;2022-09-29T11:01:22;101862.75;;;20.50
65600;BMP280;52272;-29.642;-50.764;2022-09-29T11:04:06;101857.66;;;20.57
65600;BMP280;52272;-29.642;-50.764;2022-09-29T11:06:44;101866.34;;;20.81
65600;BMP280;52272;-29.642;-50.764;2022-09-29T11:14:25;101878.22;;;21.09
65600;BMP280;52272;-29.642;-50.764;2022-09-29T11:16:58;101882.09;;;21.03
65600;BMP280;52272;-29.642;-50.764;2022-09-29T11:19:29;101875.34;;;20.58
65600;BMP280;52272;-29.642;-50.764;2022-09-29T11:25:10;101872.34;;;20.02
65600;BMP280;52272;-29.642;-50.764;2022-09-29T11:34:03;101871.16;;;19.22
65600;BMP280;52272;-29.642;-50.764;2022-09-29T12:01:51;101893.56;;;20.92
65600;BMP280;52272;-29.642;-50.764;2022-09-29T12:16:21;101900.13;;;23.95
65600;BMP280;52272;-29.642;-50.764;2022-09-29T12:18:59;101891.88;;;24.17
65600;BMP280;52272;-29.642;-50.764;2022-09-29T12:21:40;101894.88;;;24.76
65600;BMP280;52272;-29.642;-50.764;2022-09-29T12:27:32;101890.91;;;24.14
65600;BMP280;52272;-29.642;-50.764;2022-09-29T12:33:25;101895.19;;;23.99
65600;BMP280;52272;-29.642;-50.764;2022-09-29T12:39:11;101882.91;;;24.49
65600;BMP280;52272;-29.642;-50.764;2022-09-29T12:41:49;101880.00;;;24.20
65600;BMP280;52272;-29.642;-50.764;2022-09-29T12:44:41;101891.22;;;24.06
65600;BMP280;52272;-29.642;-50.764;2022-09-29T12:47:46;101886.41;;;24.28
65600;BMP280;52272;-29.642;-50.764;2022-09-29T12:58:56;101883.94;;;25.21
65600;BMP280;52272;-29.642;-50.764;2022-09-29T13:01:33;101869.00;;;24.99
65600;BMP280;52272;-29.642;-50.764;2022-09-29T13:10:40;101844.50;;;24.93
65600;BMP280;52272;-29.642;-50.764;2022-09-29T13:13:36;101849.31;;;24.25
65600;BMP280;52272;-29.642;-50.764;2022-09-29T13:16:37;101847.06;;;24.29
65600;BMP280;52272;-29.642;-50.764;2022-09-29T13:27:57;101822.00;;;23.35
65600;BMP280;52272;-29.642;-50.764;2022-09-29T13:30:32;101822.44;;;23.83
65600;BMP280;52272;-29.642;-50.764;2022-09-29T13:33:19;101828.06;;;24.12
65600;BMP280;52272;-29.642;-50.764;2022-09-29T13:35:51;101827.13;;;24.56
65600;BMP280;52272;-29.642;-50.764;2022-09-29T13:38:25;101833.16;;;24.78
65600;BMP280;52272;-29.642;-50.764;2022-09-29T13:51:47;101814.28;;;25.44
65600;BMP280;52272;-29.642;-50.764;2022-09-29T13:54:29;101811.50;;;24.91
65600;BMP280;52272;-29.642;-50.764;2022-09-29T14:00:01;101816.34;;;24.74
65600;BMP280;52272;-29.642;-50.764;2022-09-29T14:02:58;101820.06;;;24.77
65600;BMP280;52272;-29.642;-50.764;2022-09-29T14:08:28;101820.50;;;25.16
65600;BMP280;52272;-29.642;-50.764;2022-09-29T14:13:59;101803.38;;;27.49
65600;BMP280;52272;-29.642;-50.764;2022-09-29T14:27:44;101784.72;;;27.09
65600;BMP280;52272;-29.642;-50.764;2022-09-29T14:30:43;101781.91;;;27.27
65600;BMP280;52272;-29.642;-50.764;2022-09-29T14:33:44;101787.00;;;27.82
65600;BMP280;52272;-29.642;-50.764;2022-09-29T14:36:19;101774.59;;;26.91
65600;BMP280;52272;-29.642;-50.764;2022-09-29T14:38:53;101771.66;;;27.02
65600;BMP280;52272;-29.642;-50.764;2022-09-29T14:41:46;101769.59;;;27.33
65600;BMP280;52272;-29.642;-50.764;2022-09-29T14:44:36;101758.25;;;27.42
65600;BMP280;52272;-29.642;-50.764;2022-09-29T14:47:41;101750.53;;;27.28
65600;BMP280;52272;-29.642;-50.764;2022-09-29T14:50:41;101750.84;;;27.25
65600;BMP280;52272;-29.642;-50.764;2022-09-29T14:56:53;101723.56;;;27.06
65600;BMP280;52272;-29.642;-50.764;2022-09-29T15:02:28;101739.91;;;30.07
65600;BMP280;52272;-29.642;-50.764;2022-09-29T15:04:59;101723.09;;;28.33
65600;BMP280;52272;-29.642;-50.764;2022-09-29T15:07:41;101709.81;;;28.17
65600;BMP280;52272;-29.642;-50.764;2022-09-29T15:10:27;101716.06;;;27.71
65600;BMP280;52272;-29.642;-50.764;2022-09-29T15:13:26;101714.34;;;27.35
65600;BMP280;52272;-29.642;-50.764;2022-09-29T15:16:10;101710.03;;;27.39
65600;BMP280;52272;-29.642;-50.764;2022-09-29T15:18:55;101704.19;;;26.34
65600;BMP280;52272;-29.642;-50.764;2022-09-29T15:27:13;101686.22;;;26.07
65600;BMP280;52272;-29.642;-50.764;2022-09-29T15:29:47;101673.84;;;25.69
65600;BMP280;52272;-29.642;-50.764;2022-09-29T15:32:23;101683.69;;;26.09
65600;BMP280;52272;-29.642;-50.764;2022-09-29T15:35:10;101682.75;;;26.82
65600;BMP280;52272;-29.642;-50.764;2022-09-29T15:40:20;101668.75;;;26.86
65600;BMP280;52272;-29.642;-50.764;2022-09-29T15:42:51;101655.72;;;26.92
65600;BMP280;52272;-29.642;-50.764;2022-09-29T15:45:25;101653.69;;;26.22
65600;BMP280;52272;-29.642;-50.764;2022-09-29T15:48:03;101649.84;;;26.62
65600;BMP280;52272;-29.642;-50.764;2022-09-29T15:50:41;101654.06;;;26.44
65600;BMP280;52272;-29.642;-50.764;2022-09-29T15:53:12;101650.16;;;26.27
65600;BMP280;52272;-29.642;-50.764;2022-09-29T15:55:42;101641.50;;;26.10
65600;BMP280;52272;-29.642;-50.764;2022-09-29T15:58:42;101638.66;;;26.60
65600;BMP280;52272;-29.642;-50.764;2022-09-29T16:01:14;101633.22;;;26.73
65600;BMP280;52272;-29.642;-50.764;2022-09-29T16:03:57;101635.34;;;27.06
65600;BMP280;52272;-29.642;-50.764;2022-09-29T16:06:33;101626.59;;;26.81
65600;BMP280;52272;-29.642;-50.764;2022-09-29T16:09:17;101626.69;;;26.89
65600;BMP280;52272;-29.642;-50.764;2022-09-29T16:11:48;101612.53;;;27.90
65600;BMP280;52272;-29.642;-50.764;2022-09-29T16:14:25;101617.72;;;27.94
65600;BMP280;52272;-29.642;-50.764;2022-09-29T16:16:56;101611.13;;;28.45
65600;BMP280;52272;-29.642;-50.764;2022-09-29T16:19:29;101616.69;;;26.91
65600;BMP280;52272;-29.642;-50.764;2022-09-29T16:22:03;101603.63;;;27.56
65600;BMP280;52272;-29.642;-50.764;2022-09-29T16:24:36;101606.44;;;28.25
65600;BMP280;52272;-29.642;-50.764;2022-09-29T16:27:59;101599.97;;;28.15
65600;BMP280;52272;-29.642;-50.764;2022-09-29T16:30:32;101588.22;;;27.66
65600;BMP280;52272;-29.642;-50.764;2022-09-29T16:33:19;101586.00;;;27.11
65600;BMP280;52272;-29.642;-50.764;2022-09-29T16:38:35;101584.22;;;28.08
65600;BMP280;52272;-29.642;-50.764;2022-09-29T16:43:44;101573.03;;;27.12
65600;BMP280;52272;-29.642;-50.764;2022-09-29T16:46:21;101558.97;;;26.56
65600;BMP280;52272;-29.642;-50.764;2022-09-29T16:48:52;101557.63;;;26.05
65600;BMP280;52272;-29.642;-50.764;2022-09-29T16:51:23;101559.47;;;25.84
65600;BMP280;52272;-29.642;-50.764;2022-09-29T16:54:15;101558.03;;;25.46
65600;BMP280;52272;-29.642;-50.764;2022-09-29T16:56:47;101552.97;;;24.77
65600;BMP280;52272;-29.642;-50.764;2022-09-29T16:59:18;101543.84;;;24.69
65600;BMP280;52272;-29.642;-50.764;2022-09-29T17:01:52;101551.31;;;25.47
65600;BMP280;52272;-29.642;-50.764;2022-09-29T17:04:22;101556.66;;;26.60
65600;BMP280;52272;-29.642;-50.764;2022-09-29T17:06:53;101545.13;;;27.13
65600;BMP280;52272;-29.642;-50.764;2022-09-29T17:09:24;101540.47;;;27.75
65600;BMP280;52272;-29.642;-50.764;2022-09-29T17:11:55;101531.59;;;28.10
65600;BMP280;52272;-29.642;-50.764;2022-09-29T17:14:29;101533.88;;;28.19
65600;BMP280;52272;-29.642;-50.764;2022-09-29T17:17:02;101539.56;;;27.72